Raleigh County Memorial Airport
KBKW : now visible

Airfield :











YOU CAN JOIN US ON...

 
LOGIN :

Register | Disclaimer

   EN    FR    IT 

 









Legend :    VFR   Marginal VFR   IFR   Intensive IFR   Very Intensive IFR
Visi :
Ceiling :
>= 8 km
>= 3000ft
5 to 8 km
1000 to 3000 ft
1500m to 5 km
500 to 1000 ft
800 to 1500m
200 to 500 ft
< 800m
< 200 ft
Symbols :   Thunderstorms  Fog  Heavy snow  Heavy precipitations  Wind > 20 kt






- Airport Elevation : 2504 ft
- IATA code : BKW


KBKW - Raleigh County Memorial

CURRENT METAR :
  • 241808Z AUTO 12005KT 10SM OVC015 17/13 A3021 RMK AO2 T01720133

EXPIRED METARs :
  • 241751Z AUTO VRB04KT 10SM OVC014 16/13 A3021 RMK AO2 SLP214 T01610128 10161 20133 50003
  • 241651Z AUTO 12006KT 10SM OVC013 16/12 A3021 RMK AO2 SLP218 T01560122
  • 241551Z AUTO 15005KT 10SM OVC012 16/12 A3021 RMK AO2 SLP214 T01560122

TAF KBKW
Valid from the 24 at 18:00 until the 25 at 18:00 UTC


241720Z 2418/2518 10005KT P6SM BKN015
FM242100 11006KT P6SM BKN025
FM250600 13008KT P6SM BKN018
FM250900 13007KT 5SM BR BKN010
FM251300 13009KT P6SM BKN021
FM251500 13009G14KT P6SM BKN035
KZID FIR / North America



MET'MAP, your aeronautical weather chart ! - Copyright ORBIFLY December 2007 - Disclaimer

ORBIFLY MET'MAP TEAM :

Programming & Development : Alexandra Zaïnal
Original concept : Baudouin d'Aumeries
Technical & hardware support : Manuel Goepfert
Assistance : Marc-Olivier Méhu

Contact : metmap@orbifly.com




SOURCES & CREDITS :

   NOAA       Earth
Advisory